createdAt,value
2023-02-28T00:01:13.998Z,3.60
2023-02-28T00:03:41.916Z,3.10
2023-02-28T00:06:11.263Z,4.10
2023-02-28T00:08:40.032Z,3.67
2023-02-28T00:11:09.430Z,3.67
2023-02-28T00:13:40.973Z,3.10
2023-02-28T00:16:11.146Z,3.63
2023-02-28T00:18:39.504Z,3.30
2023-02-28T00:21:07.585Z,3.53
2023-02-28T00:23:35.531Z,3.70
2023-02-28T00:26:03.752Z,3.90
2023-02-28T00:28:31.789Z,3.70
2023-02-28T00:31:01.119Z,3.60
2023-02-28T00:33:29.060Z,3.70
2023-02-28T00:36:04.784Z,3.77
2023-02-28T00:38:32.507Z,3.80
2023-02-28T00:41:05.370Z,4.33
2023-02-28T00:43:34.377Z,3.30
2023-02-28T00:46:03.998Z,4.00
2023-02-28T00:48:32.448Z,3.10
2023-02-28T00:51:00.181Z,3.77
2023-02-28T00:53:28.010Z,3.40
2023-02-28T00:55:55.816Z,3.80
2023-02-28T00:58:23.561Z,3.53
2023-02-28T01:00:51.288Z,3.43
2023-02-28T01:03:21.520Z,3.70
2023-02-28T01:05:49.355Z,3.27
2023-02-28T01:08:17.077Z,3.70
2023-02-28T01:10:44.828Z,3.70
2023-02-28T01:13:13.062Z,3.40
2023-02-28T01:15:45.133Z,3.93
2023-02-28T01:18:13.021Z,3.60
2023-02-28T01:20:42.091Z,4.13
2023-02-28T01:23:09.935Z,3.80
2023-02-28T01:25:38.686Z,3.90
2023-02-28T01:28:07.438Z,3.53
2023-02-28T01:30:35.272Z,3.67
2023-02-28T01:33:03.304Z,3.40
2023-02-28T01:35:33.810Z,3.70
2023-02-28T01:38:15.758Z,3.80
2023-02-28T01:40:48.941Z,3.63
2023-02-28T01:43:23.517Z,3.40
2023-02-28T01:45:51.607Z,3.63
2023-02-28T01:48:20.033Z,4.00
2023-02-28T01:50:49.757Z,3.40
2023-02-28T01:53:23.607Z,3.63
2023-02-28T01:55:54.230Z,4.17
2023-02-28T01:58:22.690Z,3.47
2023-02-28T02:00:50.765Z,3.77
2023-02-28T02:03:21.325Z,3.63
2023-02-28T02:05:50.238Z,4.00
2023-02-28T02:08:22.216Z,4.10
2023-02-28T02:10:54.309Z,4.60
2023-02-28T02:13:50.536Z,5.00
2023-02-28T02:16:29.107Z,4.00
2023-02-28T02:19:02.632Z,3.43
2023-02-28T02:22:00.842Z,3.60
2023-02-28T02:25:06.300Z,3.70
2023-02-28T02:28:04.223Z,3.60
2023-02-28T02:30:55.183Z,3.43
2023-02-28T02:33:56.163Z,4.70
2023-02-28T02:36:29.247Z,3.30
2023-02-28T02:39:04.157Z,4.50
2023-02-28T02:41:38.645Z,4.00
2023-02-28T02:44:14.010Z,2.93
2023-02-28T02:46:45.298Z,3.50
2023-02-28T02:49:18.045Z,3.80
2023-02-28T02:51:49.233Z,3.47
2023-02-28T02:54:21.575Z,3.30
2023-02-28T02:56:51.451Z,3.37
2023-02-28T02:59:22.677Z,3.43
2023-02-28T03:01:55.221Z,3.30
2023-02-28T03:04:24.940Z,3.60
2023-02-28T03:06:55.676Z,3.57
2023-02-28T03:09:23.588Z,3.40
2023-02-28T03:11:52.774Z,3.20
2023-02-28T03:14:47.544Z,2.90
2023-02-28T03:17:40.278Z,3.47
2023-02-28T03:20:19.009Z,3.80
2023-02-28T03:22:57.226Z,3.90
2023-02-28T03:25:33.746Z,3.77
2023-02-28T03:28:07.391Z,3.43
2023-02-28T03:30:43.252Z,4.30
2023-02-28T03:33:15.200Z,3.37
2023-02-28T03:35:49.549Z,4.37
2023-02-28T03:38:25.578Z,3.50
2023-02-28T03:40:59.858Z,3.80
2023-02-28T03:43:31.227Z,4.37
2023-02-28T03:46:03.009Z,3.80
2023-02-28T03:48:36.951Z,3.73
2023-02-28T03:51:07.808Z,3.90
2023-02-28T03:53:44.208Z,3.30
2023-02-28T03:56:17.962Z,3.60
2023-02-28T03:58:50.960Z,3.60
2023-02-28T04:01:24.105Z,3.10
2023-02-28T04:03:52.520Z,4.43
2023-02-28T04:06:22.225Z,4.30
2023-02-28T04:08:51.985Z,4.27
2023-02-28T04:11:24.220Z,3.57
2023-02-28T04:13:51.956Z,3.37
2023-02-28T04:16:33.917Z,3.87
2023-02-28T04:19:04.358Z,3.10
2023-02-28T04:21:33.140Z,3.87
2023-02-28T04:24:02.862Z,3.10
2023-02-28T04:26:31.905Z,3.67
2023-02-28T04:28:59.983Z,3.73
2023-02-28T04:31:28.178Z,3.10
2023-02-28T04:33:56.413Z,3.10
2023-02-28T04:36:24.682Z,4.43
2023-02-28T04:38:52.777Z,4.23
2023-02-28T04:41:23.582Z,3.10
2023-02-28T04:43:52.785Z,3.50
2023-02-28T04:46:21.705Z,3.23
2023-02-28T04:48:49.419Z,3.13
2023-02-28T04:51:19.624Z,3.10
2023-02-28T04:53:47.803Z,2.90
2023-02-28T04:56:18.123Z,3.47
2023-02-28T04:58:47.330Z,4.33
2023-02-28T05:01:21.605Z,3.60
2023-02-28T05:03:49.506Z,3.10
2023-02-28T05:06:17.814Z,3.53
2023-02-28T05:08:45.720Z,4.03
2023-02-28T05:11:18.375Z,4.23
2023-02-28T05:13:47.689Z,4.10
2023-02-28T05:16:15.818Z,3.50
2023-02-28T05:18:43.725Z,3.17
2023-02-28T05:21:26.453Z,3.57
2023-02-28T05:23:54.686Z,3.70
2023-02-28T05:26:22.700Z,5.50
2023-02-28T05:28:52.225Z,3.90
2023-02-28T05:31:20.355Z,3.57
2023-02-28T05:33:48.529Z,3.13
2023-02-28T05:36:16.487Z,3.40
2023-02-28T05:38:44.189Z,3.80
2023-02-28T05:41:12.758Z,3.30
2023-02-28T05:43:40.588Z,3.70
2023-02-28T05:46:13.609Z,3.53
2023-02-28T05:48:43.341Z,3.57
2023-02-28T05:51:11.709Z,3.80
2023-02-28T05:53:39.415Z,3.40
2023-02-28T05:56:07.408Z,4.00
2023-02-28T05:58:35.684Z,3.60
2023-02-28T06:01:23.705Z,3.10
2023-02-28T06:03:51.526Z,3.10
2023-02-28T06:06:19.272Z,3.80
2023-02-28T06:08:47.102Z,4.83
2023-02-28T06:11:15.248Z,3.97
2023-02-28T06:13:42.996Z,4.70
2023-02-28T06:16:12.828Z,3.43
2023-02-28T06:18:41.926Z,3.50
2023-02-28T06:21:09.873Z,2.93
2023-02-28T06:23:37.806Z,3.43
2023-02-28T06:26:05.891Z,3.37
2023-02-28T06:28:33.812Z,3.30
2023-02-28T06:31:01.583Z,3.10
2023-02-28T06:33:29.309Z,3.63
2023-02-28T06:35:58.361Z,3.37
2023-02-28T06:38:26.251Z,4.13
2023-02-28T06:40:56.042Z,3.27
2023-02-28T06:43:24.053Z,3.57
2023-02-28T06:45:51.836Z,3.70
2023-02-28T06:48:19.937Z,3.70
2023-02-28T06:50:47.839Z,3.23
2023-02-28T06:53:16.919Z,3.80
2023-02-28T06:55:44.614Z,3.13
2023-02-28T06:58:16.513Z,3.20
2023-02-28T07:00:44.838Z,3.30
2023-02-28T07:03:13.639Z,3.50
2023-02-28T07:05:41.686Z,3.63
2023-02-28T07:08:09.396Z,3.90
2023-02-28T07:10:39.452Z,4.57
2023-02-28T07:13:08.321Z,3.60
2023-02-28T07:15:38.479Z,2.80
2023-02-28T07:18:07.842Z,3.40
2023-02-28T07:20:35.536Z,3.50
2023-02-28T07:23:03.224Z,2.97
2023-02-28T07:25:31.265Z,3.07
2023-02-28T07:28:01.157Z,3.10
2023-02-28T07:30:28.850Z,3.77
2023-02-28T07:32:57.046Z,3.27
2023-02-28T07:35:25.477Z,3.30
2023-02-28T07:37:53.208Z,3.00
2023-02-28T07:40:21.180Z,2.77
2023-02-28T07:42:48.889Z,3.13
2023-02-28T07:45:18.395Z,3.33
2023-02-28T07:47:46.471Z,3.57
2023-02-28T07:50:17.678Z,3.00
2023-02-28T07:52:45.383Z,4.00
2023-02-28T07:55:14.548Z,3.03
2023-02-28T07:57:42.630Z,3.63
2023-02-28T08:00:13.538Z,4.40
2023-02-28T08:02:42.661Z,4.40
2023-02-28T08:05:10.849Z,3.70
2023-02-28T08:07:38.590Z,4.37
2023-02-28T08:10:07.549Z,3.80
2023-02-28T08:12:35.300Z,4.10
2023-02-28T08:15:03.045Z,5.03
2023-02-28T08:17:30.761Z,4.40
2023-02-28T08:20:00.051Z,4.90
2023-02-28T08:22:27.763Z,5.00
2023-02-28T08:24:55.544Z,3.90
2023-02-28T08:27:23.210Z,4.23
2023-02-28T08:29:50.894Z,4.10
2023-02-28T08:32:29.476Z,3.53
2023-02-28T08:34:59.129Z,4.60
2023-02-28T08:37:27.192Z,4.70
2023-02-28T08:39:56.490Z,4.13
2023-02-28T08:42:24.869Z,4.33
2023-02-28T08:44:52.795Z,3.93
2023-02-28T08:47:21.183Z,4.27
2023-02-28T08:49:49.000Z,4.93
2023-02-28T08:52:18.136Z,5.67
2023-02-28T08:54:45.859Z,4.10
2023-02-28T08:57:13.566Z,4.80
2023-02-28T08:59:41.440Z,4.40
2023-02-28T09:02:11.336Z,5.10
2023-02-28T09:04:39.057Z,3.83
2023-02-28T09:07:06.758Z,4.10
2023-02-28T09:09:35.868Z,4.03
2023-02-28T09:12:04.968Z,4.30
2023-02-28T09:14:32.962Z,4.00
2023-02-28T09:17:00.697Z,4.50
2023-02-28T09:19:28.565Z,4.13
2023-02-28T09:21:56.254Z,3.80
2023-02-28T09:24:23.983Z,3.80
2023-02-28T09:27:03.750Z,4.00
2023-02-28T09:29:32.825Z,4.30
2023-02-28T09:32:00.740Z,4.00
2023-02-28T09:34:31.748Z,3.70
2023-02-28T09:36:59.609Z,4.20
2023-02-28T09:39:28.324Z,4.00
2023-02-28T09:41:58.641Z,4.00
2023-02-28T09:44:32.602Z,3.57
2023-02-28T09:47:03.577Z,3.47
2023-02-28T09:49:39.507Z,3.57
2023-02-28T09:52:12.412Z,3.20
2023-02-28T09:54:41.274Z,2.37
2023-02-28T09:57:17.485Z,2.90
2023-02-28T09:59:56.205Z,3.57
2023-02-28T10:02:51.841Z,2.90
2023-02-28T10:05:22.053Z,2.30
2023-02-28T10:08:00.128Z,3.10
2023-02-28T10:10:31.753Z,3.27
2023-02-28T10:13:04.425Z,3.20
2023-02-28T10:15:36.034Z,2.97
2023-02-28T10:18:09.104Z,3.00
2023-02-28T10:20:41.289Z,2.63
2023-02-28T10:23:18.220Z,3.73
2023-02-28T10:25:49.518Z,3.27
2023-02-28T10:28:19.768Z,2.83
2023-02-28T10:30:50.220Z,2.90
2023-02-28T10:33:23.420Z,2.90
2023-02-28T10:35:51.613Z,3.30
2023-02-28T10:38:22.334Z,3.10
2023-02-28T10:40:50.331Z,3.70
2023-02-28T10:43:25.553Z,3.00
2023-02-28T10:46:01.169Z,3.20
2023-02-28T10:48:36.000Z,3.20
2023-02-28T10:51:05.036Z,3.20
2023-02-28T10:53:59.289Z,3.03
2023-02-28T10:56:27.439Z,3.53
2023-02-28T10:58:58.408Z,3.23
2023-02-28T11:01:35.678Z,2.70
2023-02-28T11:04:03.807Z,3.27
2023-02-28T11:06:34.327Z,2.43
2023-02-28T11:09:05.115Z,2.77
2023-02-28T11:11:45.646Z,2.77
2023-02-28T11:14:22.388Z,3.23
2023-02-28T11:16:51.807Z,3.30
2023-02-28T11:19:24.571Z,3.20
2023-02-28T11:21:56.725Z,3.60
2023-02-28T11:24:29.297Z,4.00
2023-02-28T11:26:57.942Z,3.40
2023-02-28T11:29:30.375Z,3.10
2023-02-28T11:32:15.358Z,3.53
2023-02-28T11:34:44.237Z,3.40
2023-02-28T11:37:15.338Z,3.70
2023-02-28T11:39:43.451Z,3.50
2023-02-28T11:42:33.603Z,3.53
2023-02-28T11:45:16.118Z,3.33
2023-02-28T11:47:50.431Z,3.50
2023-02-28T11:50:41.756Z,3.50
2023-02-28T11:53:22.004Z,3.73
2023-02-28T11:55:54.260Z,3.73
2023-02-28T11:58:51.437Z,4.00
2023-02-28T12:01:33.313Z,3.67
2023-02-28T12:04:13.592Z,3.40
2023-02-28T12:06:49.439Z,3.23
2023-02-28T12:09:36.978Z,3.50
2023-02-28T12:12:14.713Z,3.50
2023-02-28T12:15:07.057Z,3.60
2023-02-28T12:17:50.496Z,3.63
2023-02-28T12:20:27.873Z,3.73
2023-02-28T12:23:12.294Z,3.30
2023-02-28T12:26:10.418Z,3.20
2023-02-28T12:28:44.037Z,3.37
2023-02-28T12:31:16.615Z,3.50
2023-02-28T12:33:49.591Z,3.10
2023-02-28T12:36:22.878Z,3.67
2023-02-28T12:38:58.035Z,3.50
2023-02-28T12:41:31.508Z,3.73
2023-02-28T12:44:04.233Z,3.50
2023-02-28T12:46:36.002Z,4.07
2023-02-28T12:49:09.424Z,3.43
2023-02-28T12:51:38.618Z,4.00
2023-02-28T12:54:14.531Z,3.80
2023-02-28T12:56:50.124Z,4.30
2023-02-28T12:59:25.167Z,3.20
2023-02-28T13:02:21.144Z,3.47
2023-02-28T13:05:14.768Z,3.63
2023-02-28T13:08:09.284Z,4.17
2023-02-28T13:10:42.701Z,3.70
2023-02-28T13:13:17.765Z,3.83
2023-02-28T13:16:00.590Z,4.27
2023-02-28T13:18:34.321Z,4.13
2023-02-28T13:21:03.418Z,4.00
2023-02-28T13:24:05.189Z,3.40
2023-02-28T13:27:10.764Z,4.57
2023-02-28T13:29:41.432Z,3.73
2023-02-28T13:32:31.443Z,3.80
2023-02-28T13:35:31.031Z,3.57
2023-02-28T13:38:37.777Z,3.37
2023-02-28T13:41:43.219Z,4.13
2023-02-28T13:44:13.523Z,4.00
2023-02-28T13:47:14.454Z,4.00
2023-02-28T13:49:42.617Z,3.70
2023-02-28T13:52:20.160Z,3.90
2023-02-28T13:54:59.409Z,3.70
2023-02-28T13:57:43.927Z,3.90
2023-02-28T14:00:30.185Z,4.00
2023-02-28T14:03:12.809Z,3.30
2023-02-28T14:05:41.009Z,3.80
2023-02-28T14:08:16.302Z,3.93
2023-02-28T14:10:47.053Z,2.80
2023-02-28T14:13:31.265Z,4.10
2023-02-28T14:16:02.657Z,4.00
2023-02-28T14:18:33.764Z,3.50
2023-02-28T14:21:12.224Z,3.90
2023-02-28T14:24:19.669Z,3.70
2023-02-28T14:27:11.248Z,3.70
2023-02-28T14:30:05.511Z,4.47
2023-02-28T14:32:39.635Z,4.07
2023-02-28T14:35:22.236Z,4.20
2023-02-28T14:37:50.793Z,5.10
2023-02-28T14:40:23.203Z,3.90
2023-02-28T14:42:58.073Z,4.53
2023-02-28T14:45:25.839Z,3.87
2023-02-28T14:47:54.928Z,4.30
2023-02-28T14:50:24.422Z,4.30
2023-02-28T14:52:55.902Z,5.07
2023-02-28T14:55:27.773Z,5.33
2023-02-28T14:57:57.336Z,4.37
2023-02-28T15:00:27.321Z,5.40
2023-02-28T15:02:57.761Z,5.40
2023-02-28T15:05:30.516Z,4.50
2023-02-28T15:08:08.199Z,4.70
2023-02-28T15:10:36.261Z,4.80
2023-02-28T15:13:06.845Z,5.17
2023-02-28T15:16:01.851Z,6.10
2023-02-28T15:18:41.856Z,5.37
2023-02-28T15:21:13.503Z,5.50
2023-02-28T15:23:44.625Z,5.40
2023-02-28T15:26:15.098Z,4.93
2023-02-28T15:28:42.926Z,5.53
2023-02-28T15:31:23.784Z,6.20
2023-02-28T15:33:57.144Z,5.20
2023-02-28T15:36:28.819Z,4.70
2023-02-28T15:39:01.564Z,5.53
2023-02-28T15:41:39.805Z,4.80
2023-02-28T15:44:27.898Z,4.73
2023-02-28T15:47:00.530Z,4.83
2023-02-28T15:49:33.479Z,5.10
2023-02-28T15:52:03.091Z,4.60
2023-02-28T15:54:34.213Z,4.40
2023-02-28T15:57:07.202Z,4.47
2023-02-28T15:59:34.954Z,4.60
2023-02-28T16:02:16.627Z,5.93
2023-02-28T16:05:00.489Z,5.13
2023-02-28T16:07:28.744Z,4.90
2023-02-28T16:09:56.661Z,6.30
2023-02-28T16:12:28.061Z,5.33
2023-02-28T16:14:57.716Z,5.93
2023-02-28T16:17:27.977Z,6.30
2023-02-28T16:19:56.485Z,5.13
2023-02-28T16:22:25.874Z,5.57
2023-02-28T16:24:54.022Z,5.20
2023-02-28T16:27:27.425Z,5.80
2023-02-28T16:29:55.991Z,5.80
2023-02-28T16:32:23.792Z,6.23
2023-02-28T16:34:51.532Z,5.20
2023-02-28T16:37:20.322Z,5.93
2023-02-28T16:39:50.982Z,6.50
2023-02-28T16:42:24.858Z,5.30
2023-02-28T16:44:53.551Z,5.13
2023-02-28T16:47:21.477Z,5.17
2023-02-28T16:49:49.338Z,5.73
2023-02-28T16:52:17.285Z,5.53
2023-02-28T16:54:44.989Z,5.90
2023-02-28T16:57:20.864Z,5.40
2023-02-28T16:59:48.782Z,5.63
2023-02-28T17:02:20.230Z,5.60
2023-02-28T17:04:48.055Z,5.60
2023-02-28T17:07:17.777Z,4.80
2023-02-28T17:09:46.762Z,4.80
2023-02-28T17:12:16.318Z,6.10
2023-02-28T17:14:44.071Z,7.30
2023-02-28T17:17:18.921Z,5.73
2023-02-28T17:19:46.643Z,5.70
2023-02-28T17:22:14.340Z,6.47
2023-02-28T17:24:42.069Z,5.70
2023-02-28T17:27:12.923Z,5.33
2023-02-28T17:29:42.652Z,5.87
2023-02-28T17:32:17.938Z,6.70
2023-02-28T17:34:46.969Z,5.93
2023-02-28T17:37:15.081Z,5.10
2023-02-28T17:39:42.828Z,5.53
2023-02-28T17:42:10.552Z,5.70
2023-02-28T17:44:38.632Z,5.83
2023-02-28T17:47:07.898Z,5.50
2023-02-28T17:49:35.652Z,6.03
2023-02-28T17:52:03.351Z,5.97
2023-02-28T17:54:31.024Z,6.20
2023-02-28T17:56:58.828Z,6.63
2023-02-28T17:59:26.542Z,6.73
2023-02-28T18:01:54.317Z,5.70
2023-02-28T18:04:23.436Z,5.93
2023-02-28T18:06:52.278Z,5.87
2023-02-28T18:09:22.641Z,6.47
2023-02-28T18:11:50.972Z,6.40
2023-02-28T18:14:20.139Z,6.27
2023-02-28T18:16:48.132Z,6.93
2023-02-28T18:19:17.302Z,6.30
2023-02-28T18:21:48.487Z,5.93
2023-02-28T18:24:17.614Z,5.27
2023-02-28T18:26:45.754Z,7.03
2023-02-28T18:29:18.426Z,6.77
2023-02-28T18:31:46.190Z,6.43
2023-02-28T18:34:15.054Z,6.03
2023-02-28T18:36:42.869Z,6.57
2023-02-28T18:39:12.164Z,6.33
2023-02-28T18:41:40.161Z,5.40
2023-02-28T18:44:18.992Z,6.03
2023-02-28T18:46:47.505Z,6.33
2023-02-28T18:49:15.342Z,6.90
2023-02-28T18:51:45.020Z,6.67
2023-02-28T18:54:15.199Z,5.60
2023-02-28T18:56:43.207Z,7.00
2023-02-28T18:59:11.517Z,6.13
2023-02-28T19:01:39.964Z,6.70
2023-02-28T19:04:07.949Z,9.53
2023-02-28T19:06:37.983Z,6.07
2023-02-28T19:09:06.033Z,6.67
2023-02-28T19:11:36.654Z,7.20
2023-02-28T19:14:04.781Z,6.87
2023-02-28T19:16:32.876Z,6.50
2023-02-28T19:19:00.750Z,6.30
2023-02-28T19:21:28.495Z,6.40
2023-02-28T19:23:56.216Z,5.83
2023-02-28T19:26:25.735Z,6.37
2023-02-28T19:28:54.784Z,6.70
2023-02-28T19:31:24.140Z,7.80
2023-02-28T19:33:53.005Z,6.90
2023-02-28T19:36:21.587Z,5.50
2023-02-28T19:38:50.155Z,6.60
2023-02-28T19:41:19.065Z,6.80
2023-02-28T19:43:47.132Z,6.47
2023-02-28T19:46:16.542Z,7.50
2023-02-28T19:48:44.776Z,6.00
2023-02-28T19:51:14.821Z,7.10
2023-02-28T19:53:43.589Z,6.63
2023-02-28T19:56:12.177Z,6.50
2023-02-28T19:58:41.502Z,6.40
2023-02-28T20:01:10.515Z,6.63
2023-02-28T20:03:39.715Z,6.33
2023-02-28T20:06:09.930Z,6.37
2023-02-28T20:08:39.133Z,6.97
2023-02-28T20:11:09.294Z,8.57
2023-02-28T20:13:37.685Z,7.33
2023-02-28T20:16:09.517Z,6.80
2023-02-28T20:18:39.693Z,6.90
2023-02-28T20:21:09.227Z,7.77
2023-02-28T20:23:38.724Z,7.57
2023-02-28T20:26:07.279Z,6.63
2023-02-28T20:28:35.019Z,6.93
2023-02-28T20:31:03.206Z,5.97
2023-02-28T20:33:30.956Z,8.33
2023-02-28T20:36:08.382Z,7.30
2023-02-28T20:38:36.091Z,7.20
2023-02-28T20:41:04.694Z,7.33
2023-02-28T20:43:32.528Z,6.90
2023-02-28T20:46:01.700Z,7.00
2023-02-28T20:48:30.628Z,6.90
2023-02-28T20:51:00.108Z,7.50
2023-02-28T20:53:29.583Z,7.73
2023-02-28T20:55:58.429Z,8.50
2023-02-28T20:58:29.220Z,8.57
2023-02-28T21:01:01.540Z,9.10
2023-02-28T21:03:29.611Z,9.87
2023-02-28T21:06:07.872Z,9.27
2023-02-28T21:08:38.649Z,8.53
2023-02-28T21:11:10.038Z,8.67
2023-02-28T21:13:38.350Z,8.60
2023-02-28T21:16:07.463Z,8.63
2023-02-28T21:18:36.535Z,9.70
2023-02-28T21:21:04.907Z,11.50
2023-02-28T21:23:33.498Z,10.20
2023-02-28T21:26:09.801Z,10.07
2023-02-28T21:28:44.310Z,10.27
2023-02-28T21:31:15.563Z,10.90
2023-02-28T21:33:43.953Z,11.57
2023-02-28T21:36:13.373Z,12.90
2023-02-28T21:38:42.118Z,11.20
2023-02-28T21:41:13.496Z,10.77
2023-02-28T21:43:42.274Z,10.60
2023-02-28T21:46:12.537Z,10.73
2023-02-28T21:48:40.872Z,11.23
2023-02-28T21:51:12.025Z,11.70
2023-02-28T21:53:41.117Z,11.83
2023-02-28T21:56:12.783Z,10.47
2023-02-28T21:58:41.185Z,11.40
2023-02-28T22:01:11.021Z,11.40
2023-02-28T22:03:39.717Z,10.87
2023-02-28T22:06:14.190Z,11.90
2023-02-28T22:08:42.508Z,10.73
2023-02-28T22:11:12.536Z,11.13
2023-02-28T22:13:41.122Z,13.83
2023-02-28T22:16:11.816Z,12.00
2023-02-28T22:18:40.658Z,10.00
2023-02-28T22:21:09.822Z,11.10
2023-02-28T22:23:38.805Z,11.10
2023-02-28T22:26:08.859Z,11.60
2023-02-28T22:28:41.486Z,11.40
2023-02-28T22:31:17.386Z,10.80
2023-02-28T22:33:45.715Z,10.13
2023-02-28T22:36:15.068Z,12.20
2023-02-28T22:38:43.283Z,11.30
2023-02-28T22:41:14.616Z,11.70
2023-02-28T22:43:44.748Z,11.43
2023-02-28T22:46:14.602Z,10.70
2023-02-28T22:48:44.197Z,12.20
2023-02-28T22:51:14.990Z,10.80
2023-02-28T22:53:44.396Z,11.30
2023-02-28T22:56:14.360Z,10.23
2023-02-28T22:58:45.783Z,9.27
2023-02-28T23:01:16.683Z,11.73
2023-02-28T23:03:45.029Z,10.90
2023-02-28T23:06:14.900Z,9.53
2023-02-28T23:08:43.406Z,9.80
2023-02-28T23:11:13.618Z,9.33
2023-02-28T23:13:42.692Z,10.90
2023-02-28T23:16:10.496Z,8.97
2023-02-28T23:18:38.215Z,10.23
2023-02-28T23:21:06.810Z,10.90
2023-02-28T23:23:35.186Z,11.80
2023-02-28T23:26:10.232Z,9.73
2023-02-28T23:28:37.953Z,10.23
2023-02-28T23:31:07.113Z,9.10
2023-02-28T23:33:34.894Z,10.60
2023-02-28T23:36:11.036Z,10.80
2023-02-28T23:38:39.818Z,10.17
2023-02-28T23:41:08.747Z,10.03
2023-02-28T23:43:36.540Z,10.30
2023-02-28T23:46:05.116Z,9.00
2023-02-28T23:48:35.107Z,9.60
2023-02-28T23:51:03.705Z,11.20
2023-02-28T23:53:33.676Z,10.77
2023-02-28T23:56:02.051Z,10.90
2023-02-28T23:58:30.403Z,11.67
